• Join FlightAware (Why Join?)
  • Login
  • US Flag 
07:18AM EDT


 

Airport Tracker/Info


-or-


 

Live Flight TrackerFlight Track Log ✈ TRS587 ✈ 27-Aug-2013 ✈ KMCO - KMDW

Flight Track Log - Related Links

Times and Time Zones

All times are in EDT time to prevent confusion due to time zone crossing. See the TRS587 flight status page for this flight to view local times or setup timezone preferences in your user account.

Time Position Orientation Groundspeed Altitude Reporting Facility
EDT Latitude Longitude Course Direction KTS MPH feet Rate Location/Type
10:38AM 28.4333 -81.3000 360° North 177 204 800  Level Orlando TRACON
10:39AM 28.4833 -81.3000 360° North 198 228 2,500 1,740 Climbing Orlando TRACON
10:40AM 28.5333 -81.3167 344° North 247 284 4,000 1,800 Climbing Orlando TRACON
10:41AM 28.5833 -81.3833 311° West 289 333 6,400 2,340 Climbing Orlando TRACON
10:42AM 28.5500 -81.4833 249° West 294 338 9,000 1,980 Climbing Orlando TRACON
10:44AM 28.4992 -81.7067 256° West 324 373 13,000 1,740 Climbing Jacksonville Center
10:45AM 28.4731 -81.8158 255° West 341 392 14,900 1,800 Climbing Jacksonville Center
10:46AM 28.4489 -81.9269 256° West 364 419 16,700 1,500 Climbing Jacksonville Center
10:47AM 28.4433 -82.0239 266° West 374 430 17,900 1,620 Climbing Jacksonville Center
10:48AM 28.4483 -82.1606 272° West 387 445 20,000 2,040 Climbing Jacksonville Center
10:49AM 28.4678 -82.2858 280° West 393 452 22,000 1,680 Climbing Jacksonville Center
10:50AM 28.4997 -82.4108 286° West 400 460 23,400 1,440 Climbing Jacksonville Center
10:51AM 28.6000 -82.4764 330° Northwest 383 441 24,900 1,440 Climbing Jacksonville Center
10:52AM 28.7044 -82.5350 334° Northwest 395 455 26,300 1,380 Climbing Jacksonville Center
10:53AM 28.8133 -82.5939 335° Northwest 410 472 27,700 1,260 Climbing Jacksonville Center
10:54AM 28.9219 -82.6578 333° Northwest 427 491 28,900 1,140 Climbing Jacksonville Center
10:55AM 29.0325 -82.7239 332° Northwest 434 499 30,000 540 Climbing Jacksonville Center
10:56AM 29.1433 -82.7881 333° Northwest 440 506 30,000  Level Jacksonville Center
10:57AM 29.2519 -82.8497 334° Northwest 440 506 30,000  Level Jacksonville Center
10:58AM 29.3667 -82.9139 334° Northwest 447 514 30,000 180 Level Jacksonville Center
10:59AM 29.4814 -82.9856 331° Northwest 447 514 30,400 900 Climbing Jacksonville Center
11:00AM 29.5919 -83.0456 335° Northwest 447 514 31,800 1,200 Climbing Jacksonville Center
11:01AM 29.7089 -83.1006 338° Northwest 447 514 32,900 1,080 Climbing Jacksonville Center
11:02AM 29.8258 -83.1558 338° Northwest 442 509 34,000 540 Climbing Jacksonville Center
11:03AM 29.9403 -83.2114 337° Northwest 442 509 34,000  Level Jacksonville Center
11:04AM 30.0531 -83.2622 339° North 437 503 34,000  Level Jacksonville Center
11:05AM 30.1656 -83.3153 338° Northwest 437 503 34,000  Level Jacksonville Center
11:06AM 30.2803 -83.3689 338° Northwest 437 503 34,000  Level Jacksonville Center
11:07AM 30.4033 -83.4225 339° North 432 497 34,000  Level Jacksonville Center
11:08AM 30.5178 -83.4786 337° Northwest 432 497 34,000  Level Jacksonville Center
11:09AM 30.6325 -83.5322 338° Northwest 432 497 34,000  Level Jacksonville Center
11:10AM 30.7447 -83.5886 337° Northwest 432 497 34,000  Level Jacksonville Center
11:11AM 30.8594 -83.6403 339° North 432 497 34,000  Level Jacksonville Center
11:13AM 31.1286 -83.7697 338° Northwest 430 495 34,000  Level Atlanta Center
11:14AM 31.2433 -83.8253 338° Northwest 435 501 34,000  Level Atlanta Center
11:15AM 31.3583 -83.8808 338° Northwest 440 506 34,000  Level Atlanta Center
11:16AM 31.4711 -83.9367 337° Northwest 435 501 34,000  Level Atlanta Center
11:17AM 31.6006 -83.9803 344° North 440 506 34,000  Level Atlanta Center
11:18AM 31.7194 -84.0072 349° North 435 501 34,000  Level Atlanta Center
11:19AM 31.8425 -84.0317 350° North 435 501 34,000  Level Atlanta Center
11:20AM 31.9617 -84.0583 349° North 435 501 34,000  Level Atlanta Center
11:21AM 32.0806 -84.0831 350° North 429 494 34,000  Level Atlanta Center
11:22AM 32.1953 -84.1100 349° North 429 494 34,000  Level Atlanta Center
11:23AM 32.3122 -84.1347 350° North 424 488 34,000  Level Atlanta Center
11:24AM 32.4292 -84.1619 349° North 429 494 34,000  Level Atlanta Center
11:25AM 32.5458 -84.1867 350° North 429 494 34,000  Level Atlanta Center
11:26AM 32.6628 -84.2139 349° North 429 494 34,000  Level Atlanta Center
11:27AM 32.7756 -84.2389 349° North 429 494 34,000  Level Atlanta Center
11:28AM 32.8797 -84.2664 347° North 424 488 34,000  Level Atlanta Center
11:29AM 32.9944 -84.2914 350° North 424 488 34,000  Level Atlanta Center
11:30AM 33.1197 -84.3217 349° North 424 488 34,000  Level Atlanta Center
11:31AM 33.2367 -84.3467 350° North 419 482 34,000  Level Atlanta Center
11:32AM 33.3514 -84.3744 349° North 419 482 34,000  Level Atlanta Center
11:33AM 33.4661 -84.4000 349° North 419 482 34,000  Level Atlanta Center
11:34AM 33.5850 -84.4278 349° North 424 488 34,000  Level Atlanta Center
11:35AM 33.6975 -84.4533 349° North 424 488 34,000  Level Atlanta Center
11:36AM 33.8164 -84.4814 349° North 424 488 34,000  Level Atlanta Center
11:37AM 33.9289 -84.5094 348° North 429 494 34,000  Level Atlanta Center
11:38AM 34.0478 -84.5428 347° North 429 494 34,000  Level Atlanta Center
11:39AM 34.1667 -84.5661 351° North 429 494 34,000  Level Atlanta Center
11:40AM 34.2794 -84.5919 349° North 427 491 34,000  Level Atlanta Center
11:41AM 34.3919 -84.6203 348° North 416 479 34,000  Level Atlanta Center
11:42AM 34.5044 -84.6489 348° North 409 471 34,000  Level Atlanta Center
11:43AM 34.6169 -84.6722 350° North 409 471 34,000  Level Atlanta Center
11:44AM 34.7275 -84.7086 345° North 414 476 34,000  Level Atlanta Center
11:45AM 34.8400 -84.7347 349° North 414 476 34,000  Level Atlanta Center
11:46AM 34.9525 -84.7636 348° North 414 476 34,000  Level Atlanta Center
11:47AM 35.0650 -84.7900 349° North 414 476 34,000  Level Atlanta Center
11:48AM 35.1797 -84.8189 348° North 414 476 34,000  Level Atlanta Center
11:49AM 35.2922 -84.8481 348° North 414 476 34,000 -180 Level Atlanta Center
11:50AM 35.4067 -84.8744 349° North 414 476 33,700 -1,320 Descending Atlanta Center
11:51AM 35.5253 -84.9064 348° North 414 476 31,400 -1,860 Descending Atlanta Center
11:52AM 35.6317 -84.9331 348° North 419 482 30,000 -720 Descending Atlanta Center
11:53AM 35.7522 -84.9650 348° North 431 496 30,000  Level Atlanta Center
11:54AM 35.8753 -84.9922 350° North 436 502 30,000  Level Atlanta Center
11:55AM 35.9786 -85.0203 348° North 451 519 30,000  Level Indianapolis Center
11:56AM 36.1003 -85.0500 349° North 445 512 30,000  Level Indianapolis Center
11:57AM 36.2464 -85.0867 349° North 444 511 30,000  Level Indianapolis Center
11:58AM 36.3678 -85.1186 348° North 446 513 30,000  Level Indianapolis Center
11:59AM 36.4894 -85.1500 348° North 446 513 30,000  Level Indianapolis Center
12:00PM 36.6103 -85.1817 348° North 444 511 30,000  Level Indianapolis Center
12:01PM 36.7314 -85.2128 348° North 443 510 30,000  Level Indianapolis Center
12:03PM 36.8508 -85.2436 348° North 441 507 30,000  Level Indianapolis Center
12:04PM 36.9722 -85.2747 348° North 442 509 30,000  Level Indianapolis Center
12:05PM 37.1044 -85.3103 348° North 448 516 30,000  Level Indianapolis Center
12:06PM 37.2258 -85.3425 348° North 445 512 30,000  Level Indianapolis Center
12:07PM 37.3675 -85.3792 348° North 442 509 30,000  Level Indianapolis Center
12:08PM 37.4883 -85.4111 348° North 442 509 30,000  Level Indianapolis Center
12:09PM 37.6086 -85.4453 347° North 442 509 30,000  Level Indianapolis Center
12:10PM 37.7272 -85.4764 348° North 436 502 30,000  Level Indianapolis Center
12:11PM 37.8425 -85.5075 348° North 428 493 30,000  Level Indianapolis Center
12:12PM 37.9603 -85.5386 348° North 430 495 30,000  Level Indianapolis Center
12:13PM 38.0756 -85.5694 348° North 427 491 30,000  Level Indianapolis Center
12:14PM 38.1931 -85.5939 351° North 423 487 30,000  Level Indianapolis Center
12:15PM 38.3319 -85.6203 352° North 423 487 30,000  Level Indianapolis Center
12:16PM 38.4511 -85.6436 351° North 430 495 30,000  Level Indianapolis Center
12:17PM 38.5681 -85.6669 351° North 427 491 30,000  Level Indianapolis Center
12:18PM 38.6903 -85.6906 351° North 427 491 30,000  Level Indianapolis Center
12:19PM 38.8083 -85.7128 352° North 430 495 30,000  Level Indianapolis Center
12:20PM 38.9264 -85.7358 351° North 431 496 30,000  Level Indianapolis Center
12:21PM 39.0422 -85.7592 351° North 426 490 30,000  Level Indianapolis Center
12:22PM 39.1589 -85.7828 351° North 426 490 30,000  Level Indianapolis Center
12:23PM 39.2736 -85.8044 352° North 421 484 30,000  Level Indianapolis Center
12:24PM 39.4103 -85.8317 351° North 418 481 30,000  Level Indianapolis Center
12:25PM 39.5231 -85.8544 351° North 414 476 30,000 -300 Level Indianapolis Center
12:26PM 39.6383 -85.8767 352° North 420 483 29,500 -600 Descending Indianapolis Center
12:27PM 39.7558 -85.9008 351° North 431 496 28,800 -780 Descending Indianapolis Center
12:28PM 39.8711 -85.9228 352° North 428 493 28,000 -840 Descending Indianapolis Center
12:29PM 40.0056 -85.9514 351° North 415 478 27,100 -1,080 Descending Indianapolis Center
12:30PM 40.1158 -85.9731 351° North 406 467 25,800 -2,100 Descending Indianapolis Center
12:31PM 40.2031 -85.9897 352° North 400 460 23,400 -2,820 Descending Chicago Center
12:32PM 40.3019 -86.0308 342° North 377 434 20,800 -1,680 Descending Chicago Center
12:33PM 40.3956 -86.0803 338° Northwest 367 422 20,000 -420 Descending Chicago Center
12:34PM 40.4861 -86.1278 338° Northwest 354 407 20,000 -300 Level Chicago Center
12:35PM 40.5772 -86.1764 338° Northwest 357 411 19,500 -900 Descending Chicago Center
12:36PM 40.6850 -86.2333 338° Northwest 350 403 18,200 -1,800 Descending Chicago Center
12:37PM 40.7756 -86.2836 337° Northwest 343 395 15,800 -2,280 Descending Chicago Center
12:38PM 40.8614 -86.3303 338° Northwest 335 386 13,500 -2,160 Descending Chicago Center
12:39PM 40.9453 -86.3744 338° Northwest 326 375 11,400 -1,200 Descending Chicago Center
12:40PM 41.0294 -86.4217 337° Northwest 329 379 11,100 -180 Descending Chicago Center
12:41PM 41.0950 -86.5011 318° Northwest 321 369 11,100 -540 Level Chicago Center
12:42PM 41.1522 -86.5892 311° West 315 362 10,100 -540 Descending Chicago Center
12:43PM 41.2092 -86.6792 310° West 317 365 10,100 -60 Level Chicago Center
12:44PM 41.2692 -86.7731 310° West 311 358 10,000 -780 Descending Chicago Center
12:46PM 41.3181 -86.8492 311° West 278 320 8,600 -1,320 Descending Chicago Center
12:47PM 41.3775 -86.9419 311° West 277 319 7,300 -900 Descending Chicago Center
12:48PM 41.4267 -87.0178 311° West 275 316 6,800 -540 Descending Chicago Center
12:49PM 41.4744 -87.0942 310° West 271 312 6,300 -780 Descending Chicago Center
12:50PM 41.5125 -87.1781 301° West 268 308 5,300 -1,140 Descending Chicago Center
12:51PM 41.5467 -87.2636 298° West 265 305 4,000 -660 Descending Chicago Center
12:52PM 41.5819 -87.3647 295° West 255 293 4,000 -60 Level Chicago Center
12:53PM 41.6133 -87.4475 297° West 254 292 3,900  Descending Chicago Center
12:54PM 41.6403 -87.5194 297° West 239 275 4,000 -60 Climbing Chicago Center
12:55PM 41.6658 -87.5892 296° West 223 257 3,800 -660 Descending Chicago Center
12:56PM 41.7075 -87.6419 317° Northwest 215 247 2,700 -840 Descending Chicago Center
12:57PM 41.7569 -87.6689 338° Northwest 196 226 2,100 -540 Descending Chicago Center
12:58PM 41.8044 -87.6806 350° North 188 216 1,700 -540 Descending Chicago Center
12:59PM 41.8069 -87.7244 274° West 152 175 1,000 -720 Descending Chicago Center
01:01PM 41.7833 -87.7500 14° North  Level FlightAware Approximate